CDT,Max TemperatureF,Mean TemperatureF,Min TemperatureF,Max Dew PointF,MeanDew PointF,Min DewpointF,Max Humidity, Mean Humidity, Min Humidity, Max Sea Level PressureIn, Mean Sea Level PressureIn, Min Sea Level PressureIn, Max VisibilityMiles, Mean VisibilityMiles, Min VisibilityMiles, Max Wind SpeedMPH, Mean Wind SpeedMPH, Max Gust SpeedMPH,PrecipitationIn, CloudCover, Events, WindDirDegrees
2013-3-1,48,39,30,36,30,27,92,71,49,30.24,30.20,30.12,10,10,10,15,7,21,0.00,3,,357
2013-3-2,42,35,28,32,26,23,89,70,50,30.31,30.27,30.22,10,10,5,17,7,24,0.00,5,,342
2013-3-3,53,38,22,29,25,21,92,62,32,30.33,30.23,30.11,10,10,9,8,4,15,0.00,0,,163
2013-3-4,73,55,37,55,43,29,79,59,38,30.11,29.96,29.84,10,10,10,21,12,33,0.00,2,,177
2013-3-5,67,56,45,60,45,25,84,59,34,30.28,30.05,29.85,10,10,8,29,11,40,0.01,4,Rain,286
2013-3-6,53,43,33,32,27,24,70,53,35,30.41,30.34,30.29,10,10,10,16,7,22,0.00,0,,357
2013-3-7,61,47,33,39,32,30,89,61,32,30.42,30.33,30.28,10,10,10,9,2,14,0.00,0,,57
2013-3-8,71,52,32,45,36,32,100,63,26,30.36,30.27,30.18,10,8,0,12,2,14,0.00,0,Fog,76
2013-3-9,76,64,51,55,49,40,77,59,41,30.19,30.07,29.97,10,10,7,23,10,29,0.00,2,,152
2013-3-10,75,63,51,61,55,48,100,79,58,29.98,29.90,29.84,10,6,1,26,9,38,1.57,7,Rain-Thunderstorm,248
2013-3-11,56,47,38,54,40,34,92,68,43,30.08,30.00,29.93,10,9,2,17,7,22,0.00,3,Rain,301
2013-3-12,63,48,32,40,34,31,93,62,30,30.27,30.19,30.08,10,10,10,12,4,25,0.00,0,,352
2013-3-13,61,48,35,39,29,17,100,60,19,30.47,30.40,30.27,10,10,7,18,7,26,0.00,0,,358
2013-3-14,69,50,30,39,32,28,100,61,22,30.48,30.39,30.28,10,10,2,9,5,15,0.00,0,,173
2013-3-15,78,62,45,51,44,37,89,59,29,30.27,30.18,30.06,10,10,10,14,8,23,0.00,0,,212
2013-3-16,78,67,56,56,52,48,86,61,36,30.07,30.01,29.91,10,10,10,20,10,26,0.00,1,,212
2013-3-17,81,66,50,61,56,50,96,69,42,29.98,29.89,29.77,10,10,9,20,8,29,0.00,3,,179
2013-3-18,85,69,52,65,60,47,93,74,54,30.04,29.83,29.75,10,9,5,22,10,30,T,6,Rain-Thunderstorm,193
2013-3-19,71,60,48,47,40,34,86,56,26,30.15,30.09,30.04,10,10,10,14,9,18,0.00,0,,42
2013-3-20,67,52,37,39,30,20,70,43,16,30.26,30.17,30.11,10,10,10,17,7,25,T,1,Rain,11
2013-3-21,58,47,36,35,26,17,92,60,27,30.12,30.01,29.87,10,10,10,15,10,26,0.00,3,,85
2013-3-22,57,51,45,49,45,33,93,68,43,29.93,29.86,29.81,10,9,4,20,10,24,0.18,8,Rain,88
2013-3-23,76,64,52,64,56,50,100,84,68,29.86,29.76,29.63,10,6,1,22,6,31,0.39,7,Rain-Thunderstorm,4
2013-3-24,57,48,38,54,45,28,100,72,43,30.10,29.80,29.64,10,7,0,26,12,37,0.01,6,Fog-Rain-Thunderstorm,300
2013-3-25,57,45,33,28,23,18,75,50,24,30.35,30.22,30.12,10,10,10,21,11,30,0.00,0,,320
2013-3-26,51,41,31,29,25,22,75,57,39,30.47,30.41,30.36,10,10,10,14,7,20,0.00,0,,345
2013-3-27,61,43,25,35,27,21,92,57,22,30.49,30.40,30.31,10,9,2,9,2,16,0.00,0,,116
2013-3-28,72,52,31,41,35,29,92,57,22,30.40,30.32,30.25,10,10,9,9,1,12,0.00,0,,110
2013-3-29,78,61,43,48,43,36,86,55,23,30.31,30.24,30.17,10,10,10,15,5,26,0.00,2,,188
2013-3-30,71,64,56,59,54,42,93,71,48,30.18,30.09,30.00,10,9,2,20,6,28,0.21,3,Rain-Thunderstorm,207
2013-3-31,67,59,50,63,57,50,100,92,84,30.03,29.97,29.84,10,5,0,22,6,36,0.59,5,Fog-Rain-Thunderstorm,242